<?xml version='1.0' encoding='UTF-8'?><gpx version="1.1" creator="JPX - https://github.com/jenetics/jpx" xmlns="http://www.topografix.com/GPX/1/1"><trk><trkseg><trkpt lat="43.353632169082424" lon="10.838434575807195"><ele>161.14285714285714</ele><time>2026-04-18T12:59:18Z</time></trkpt><trkpt lat="43.353622078251306" lon="10.838543997759553"><ele>161.28571428571428</ele><time>2026-04-18T12:59:29Z</time></trkpt><trkpt lat="43.35359746335041" lon="10.838628398935107"><ele>161.42857142857144</ele><time>2026-04-18T12:59:34.999Z</time></trkpt><trkpt lat="43.35358145772866" lon="10.838717280180816"><ele>161.57142857142856</ele><time>2026-04-18T12:59:42.999Z</time></trkpt><trkpt lat="43.35357552352598" lon="10.838811417109897"><ele>161.71428571428572</ele><time>2026-04-18T12:59:49.999Z</time></trkpt><trkpt lat="43.353563023741664" lon="10.838896762313537"><ele>161.85714285714286</ele><time>2026-04-18T12:59:56.999Z</time></trkpt><trkpt lat="43.35354960526999" lon="10.838984972566367"><ele>162.0</ele><time>2026-04-18T13:00:02.999Z</time></trkpt><trkpt lat="43.35357051265732" lon="10.839073717641783"><ele>162.0</ele><time>2026-04-18T13:00:10.999Z</time></trkpt><trkpt lat="43.35358646781791" lon="10.839158466434604"><ele>162.0</ele><time>2026-04-18T13:00:17.999Z</time></trkpt><trkpt lat="43.35361653882527" lon="10.839236395819556"><ele>162.0</ele><time>2026-04-18T13:00:24.998Z</time></trkpt><trkpt lat="43.35363143918373" lon="10.83932976160779"><ele>162.0</ele><time>2026-04-18T13:00:32.998Z</time></trkpt><trkpt lat="43.35360956901663" lon="10.8394236722788"><ele>162.0</ele><time>2026-04-18T13:01:05.998Z</time></trkpt><trkpt lat="43.3535646645815" lon="10.839486371519412"><ele>162.0</ele><time>2026-04-18T13:01:14Z</time></trkpt><trkpt lat="43.353496344253344" lon="10.839515257731788"><ele>162.0</ele><time>2026-04-18T13:01:27Z</time></trkpt><trkpt lat="43.35343007144877" lon="10.839524328702252"><ele>162.0</ele><time>2026-04-18T13:01:34.999Z</time></trkpt><trkpt lat="43.35337514381211" lon="10.839570611452517"><ele>162.0</ele><time>2026-04-18T13:01:40.999Z</time></trkpt><trkpt lat="43.35331107843786" lon="10.8395449649283"><ele>162.0</ele><time>2026-04-18T13:01:52.999Z</time></trkpt><trkpt lat="43.35328998904701" lon="10.83946115637651"><ele>162.0</ele><time>2026-04-18T13:01:57.999Z</time></trkpt><trkpt lat="43.353262868597206" lon="10.839364879435333"><ele>162.0</ele><time>2026-04-18T13:02:33.998Z</time></trkpt><trkpt lat="43.35329001586252" lon="10.839279976028747"><ele>162.0</ele><time>2026-04-18T13:02:40.998Z</time></trkpt><trkpt lat="43.35333457305181" lon="10.839211100368603"><ele>162.0</ele><time>2026-04-18T13:02:47.998Z</time></trkpt><trkpt lat="43.353382809607105" lon="10.83914858920566"><ele>162.0</ele><time>2026-04-18T13:02:54.998Z</time></trkpt><trkpt lat="43.3534327998616" lon="10.83909420445077"><ele>162.0</ele><time>2026-04-18T13:03:00.998Z</time></trkpt><trkpt lat="43.353472477154774" lon="10.839017245214091"><ele>162.0</ele><time>2026-04-18T13:03:07.998Z</time></trkpt><trkpt lat="43.35341918291525" lon="10.838956539657612"><ele>162.0</ele><time>2026-04-18T13:03:15Z</time></trkpt><trkpt lat="43.35334814992768" lon="10.838987015714624"><ele>162.0</ele><time>2026-04-18T13:03:20Z</time></trkpt><trkpt lat="43.35328364759546" lon="10.839009307946238"><ele>162.0</ele><time>2026-04-18T13:03:27Z</time></trkpt><trkpt lat="43.35321936702259" lon="10.839018902209649"><ele>162.0</ele><time>2026-04-18T13:03:34Z</time></trkpt><trkpt lat="43.35316324177416" lon="10.839062608339601"><ele>162.0</ele><time>2026-04-18T13:03:38Z</time></trkpt><trkpt lat="43.35312205414211" lon="10.839141295292048"><ele>162.0</ele><time>2026-04-18T13:03:43.999Z</time></trkpt><trkpt lat="43.35309556295211" lon="10.83922466472689"><ele>162.0</ele><time>2026-04-18T13:03:49.999Z</time></trkpt><trkpt lat="43.35307481946406" lon="10.839317936112263"><ele>162.0</ele><time>2026-04-18T13:03:55.999Z</time></trkpt><trkpt lat="43.35306816034618" lon="10.839408028824732"><ele>162.0</ele><time>2026-04-18T13:04:00.999Z</time></trkpt><trkpt lat="43.353063288028316" lon="10.839506878695165"><ele>162.0</ele><time>2026-04-18T13:04:06.999Z</time></trkpt><trkpt lat="43.35308217078738" lon="10.839598321819233"><ele>162.0</ele><time>2026-04-18T13:04:14.999Z</time></trkpt><trkpt lat="43.35314997296946" lon="10.839612357946349"><ele>161.71428571428572</ele><time>2026-04-18T13:04:20.999Z</time></trkpt><trkpt lat="43.35321522841667" lon="10.839603282794998"><ele>161.42857142857142</ele><time>2026-04-18T13:04:27.999Z</time></trkpt><trkpt lat="43.35319318314672" lon="10.839684870421774"><ele>161.14285714285714</ele><time>2026-04-18T13:04:34.999Z</time></trkpt><trkpt lat="43.35312135486077" lon="10.839697392378108"><ele>160.85714285714286</ele><time>2026-04-18T13:05:13.998Z</time></trkpt><trkpt lat="43.353062402969364" lon="10.839747466088598"><ele>160.57142857142858</ele><time>2026-04-18T13:05:17.998Z</time></trkpt><trkpt lat="43.35304088703442" lon="10.839834399132801"><ele>160.28571428571428</ele><time>2026-04-18T13:05:26Z</time></trkpt><trkpt lat="43.353033963382266" lon="10.839925629195331"><ele>160.0</ele><time>2026-04-18T13:05:33Z</time></trkpt><trkpt lat="43.35306467982563" lon="10.840003691198339"><ele>160.0</ele><time>2026-04-18T13:05:39Z</time></trkpt><trkpt lat="43.35313109617967" lon="10.840043830167389"><ele>160.0</ele><time>2026-04-18T13:05:46Z</time></trkpt><trkpt lat="43.35319327978182" lon="10.839991262230404"><ele>160.0</ele><time>2026-04-18T13:05:53.999Z</time></trkpt><trkpt lat="43.353231308853786" lon="10.839908604545228"><ele>160.0</ele><time>2026-04-18T13:06:00.999Z</time></trkpt><trkpt lat="43.353276079748774" lon="10.839840005531784"><ele>160.0</ele><time>2026-04-18T13:06:07.999Z</time></trkpt><trkpt lat="43.35332733443714" lon="10.839769033270592"><ele>160.0</ele><time>2026-04-18T13:06:17.999Z</time></trkpt><trkpt lat="43.35336430381954" lon="10.839693705304729"><ele>160.0</ele><time>2026-04-18T13:06:25.999Z</time></trkpt><trkpt lat="43.353426043057695" lon="10.839669060631097"><ele>160.0</ele><time>2026-04-18T13:06:36.999Z</time></trkpt><trkpt lat="43.35348436578692" lon="10.839623586364016"><ele>160.0</ele><time>2026-04-18T13:07:00.998Z</time></trkpt><trkpt lat="43.35353779387346" lon="10.839678700220185"><ele>160.0</ele><time>2026-04-18T13:07:07.998Z</time></trkpt><trkpt lat="43.353549187242166" lon="10.839771336174453"><ele>160.0</ele><time>2026-04-18T13:08:07.999Z</time></trkpt><trkpt lat="43.3535171313076" lon="10.839847763564157"><ele>160.0</ele><time>2026-04-18T13:08:50.999Z</time></trkpt><trkpt lat="43.35345248047297" lon="10.839844691097007"><ele>160.0</ele><time>2026-04-18T13:08:56.999Z</time></trkpt><trkpt lat="43.35337937663675" lon="10.839859982842622"><ele>160.0</ele><time>2026-04-18T13:09:03.998Z</time></trkpt><trkpt lat="43.353310221993496" lon="10.839863439088925"><ele>160.0</ele><time>2026-04-18T13:09:09.998Z</time></trkpt><trkpt lat="43.35325410655241" lon="10.83991569996055"><ele>160.0</ele><time>2026-04-18T13:09:16.998Z</time></trkpt><trkpt lat="43.35324218593018" lon="10.840007023094936"><ele>160.0</ele><time>2026-04-18T13:09:22.998Z</time></trkpt><trkpt lat="43.35326737585796" lon="10.840099199296354"><ele>160.0</ele><time>2026-04-18T13:09:32Z</time></trkpt><trkpt lat="43.353322052372384" lon="10.840147618442558"><ele>160.0</ele><time>2026-04-18T13:09:38Z</time></trkpt><trkpt lat="43.35338139312836" lon="10.840180969362974"><ele>160.0</ele><time>2026-04-18T13:09:45Z</time></trkpt><trkpt lat="43.35343180413313" lon="10.840242377505788"><ele>160.0</ele><time>2026-04-18T13:09:53Z</time></trkpt><trkpt lat="43.35343556155288" lon="10.84033145512438"><ele>159.42857142857142</ele><time>2026-04-18T13:10:08Z</time></trkpt><trkpt lat="43.35336982951607" lon="10.840369893109278"><ele>158.85714285714286</ele><time>2026-04-18T13:10:16.999Z</time></trkpt><trkpt lat="43.35330429801222" lon="10.840385209761106"><ele>158.28571428571428</ele><time>2026-04-18T13:10:40.999Z</time></trkpt><trkpt lat="43.353232129266125" lon="10.840381967854318"><ele>157.71428571428572</ele><time>2026-04-18T13:10:45.999Z</time></trkpt><trkpt lat="43.35320156476664" lon="10.840464482371836"><ele>157.14285714285714</ele><time>2026-04-18T13:12:00Z</time></trkpt><trkpt lat="43.35316777545293" lon="10.84054972167152"><ele>156.57142857142858</ele><time>2026-04-18T13:12:06Z</time></trkpt><trkpt lat="43.35314423692643" lon="10.840644616350746"><ele>156.0</ele><time>2026-04-18T13:12:12Z</time></trkpt><trkpt lat="43.353125111873155" lon="10.840741682002516"><ele>156.0</ele><time>2026-04-18T13:12:17.999Z</time></trkpt><trkpt lat="43.35310598872689" lon="10.840832002991656"><ele>156.0</ele><time>2026-04-18T13:12:23.999Z</time></trkpt><trkpt lat="43.353073266943106" lon="10.840918511541554"><ele>156.0</ele><time>2026-04-18T13:13:08.999Z</time></trkpt><trkpt lat="43.35306731596255" lon="10.841004793906748"><ele>156.0</ele><time>2026-04-18T13:13:14.999Z</time></trkpt><trkpt lat="43.353080360792944" lon="10.841095122399357"><ele>156.0</ele><time>2026-04-18T13:13:19.998Z</time></trkpt><trkpt lat="43.35307822347124" lon="10.841191685889207"><ele>156.0</ele><time>2026-04-18T13:13:26.998Z</time></trkpt><trkpt lat="43.35307198768429" lon="10.84129262240951"><ele>156.0</ele><time>2026-04-18T13:13:35.998Z</time></trkpt><trkpt lat="43.35308473212756" lon="10.841390944675336"><ele>156.57142857142858</ele><time>2026-04-18T13:13:42.998Z</time></trkpt><trkpt lat="43.35309490988247" lon="10.841483149835327"><ele>157.14285714285714</ele><time>2026-04-18T13:13:49Z</time></trkpt><trkpt lat="43.353096068538676" lon="10.841576630039823"><ele>157.71428571428572</ele><time>2026-04-18T13:13:55Z</time></trkpt><trkpt lat="43.35308930028684" lon="10.841667770314167"><ele>158.28571428571428</ele><time>2026-04-18T13:14:01Z</time></trkpt><trkpt lat="43.353107212071436" lon="10.841761204927815"><ele>158.85714285714286</ele><time>2026-04-18T13:14:07Z</time></trkpt><trkpt lat="43.353104111933554" lon="10.841849744201427"><ele>159.42857142857142</ele><time>2026-04-18T13:14:15Z</time></trkpt><trkpt lat="43.353099060977485" lon="10.84194144779597"><ele>160.0</ele><time>2026-04-18T13:14:24.999Z</time></trkpt><trkpt lat="43.35311998908363" lon="10.842034643155454"><ele>160.57142857142856</ele><time>2026-04-18T13:14:31.999Z</time></trkpt><trkpt lat="43.35313681168554" lon="10.842122041293097"><ele>161.14285714285714</ele><time>2026-04-18T13:14:38.999Z</time></trkpt><trkpt lat="43.353161238449935" lon="10.84220940021093"><ele>161.71428571428572</ele><time>2026-04-18T13:14:44.999Z</time></trkpt><trkpt lat="43.35319684629829" lon="10.842291747020695"><ele>162.28571428571428</ele><time>2026-04-18T13:14:51.999Z</time></trkpt><trkpt lat="43.35321687124875" lon="10.842379289126624"><ele>162.85714285714286</ele><time>2026-04-18T13:14:58.999Z</time></trkpt><trkpt lat="43.35321625270521" lon="10.842472055759655"><ele>163.42857142857142</ele><time>2026-04-18T13:15:05.999Z</time></trkpt><trkpt lat="43.35314246245813" lon="10.842487228569397"><ele>164.0</ele><time>2026-04-18T13:15:13.999Z</time></trkpt><trkpt lat="43.35309392501552" lon="10.842421123930126"><ele>163.99999999999997</ele><time>2026-04-18T13:15:22.998Z</time></trkpt><trkpt lat="43.35305799340514" lon="10.842341542313921"><ele>164.0</ele><time>2026-04-18T13:15:30.998Z</time></trkpt><trkpt lat="43.353028860025404" lon="10.84226086722374"><ele>164.0</ele><time>2026-04-18T13:15:38.998Z</time></trkpt><trkpt lat="43.35301152685218" lon="10.842169303459844"><ele>164.0</ele><time>2026-04-18T13:15:46.998Z</time></trkpt><trkpt lat="43.35300403247718" lon="10.842073043582097"><ele>164.0</ele><time>2026-04-18T13:15:55Z</time></trkpt><trkpt lat="43.35299732765889" lon="10.841973591511845"><ele>163.99999999999997</ele><time>2026-04-18T13:16:02Z</time></trkpt><trkpt lat="43.35296072114934" lon="10.841901399656086"><ele>164.0</ele><time>2026-04-18T13:16:06Z</time></trkpt><trkpt lat="43.352927371938776" lon="10.841824093133942"><ele>161.42857142857142</ele><time>2026-04-18T13:16:11Z</time></trkpt><trkpt lat="43.35292443866953" lon="10.841720044268344"><ele>158.85714285714286</ele><time>2026-04-18T13:16:18Z</time></trkpt><trkpt lat="43.35293297706838" lon="10.841631033335922"><ele>156.28571428571428</ele><time>2026-04-18T13:16:24Z</time></trkpt><trkpt lat="43.35293402810812" lon="10.841541149419976"><ele>153.71428571428572</ele><time>2026-04-18T13:16:31Z</time></trkpt><trkpt lat="43.35294430371072" lon="10.841442797190226"><ele>151.14285714285714</ele><time>2026-04-18T13:16:37.999Z</time></trkpt><trkpt lat="43.3529659146463" lon="10.841357736681635"><ele>148.57142857142856</ele><time>2026-04-18T13:16:44.999Z</time></trkpt><trkpt lat="43.35300453171822" lon="10.841288795973648"><ele>146.0</ele><time>2026-04-18T13:16:50.999Z</time></trkpt><trkpt lat="43.353024061038354" lon="10.84120427264193"><ele>146.0</ele><time>2026-04-18T13:16:59.999Z</time></trkpt><trkpt lat="43.353044544138974" lon="10.841116528319752"><ele>146.0</ele><time>2026-04-18T13:17:06.999Z</time></trkpt><trkpt lat="43.353016612308075" lon="10.84103627478447"><ele>146.0</ele><time>2026-04-18T13:17:15.999Z</time></trkpt><trkpt lat="43.35296526217003" lon="10.840984390927002"><ele>146.0</ele><time>2026-04-18T13:17:21.999Z</time></trkpt><trkpt lat="43.352898691697945" lon="10.84095942576116"><ele>146.0</ele><time>2026-04-18T13:17:27.999Z</time></trkpt><trkpt lat="43.3528329391655" lon="10.840964510946003"><ele>146.0</ele><time>2026-04-18T13:17:33.998Z</time></trkpt><trkpt lat="43.35277053730707" lon="10.840993645690503"><ele>146.0</ele><time>2026-04-18T13:17:42.998Z</time></trkpt><trkpt lat="43.352704317128556" lon="10.840975010023778"><ele>145.71428571428572</ele><time>2026-04-18T13:17:52.998Z</time></trkpt><trkpt lat="43.352672180789945" lon="10.840880220232382"><ele>145.42857142857144</ele><time>2026-04-18T13:18:01Z</time></trkpt><trkpt lat="43.35267223876358" lon="10.840783889753395"><ele>145.14285714285717</ele><time>2026-04-18T13:18:08Z</time></trkpt><trkpt lat="43.352684226083994" lon="10.840694805744794"><ele>144.85714285714286</ele><time>2026-04-18T13:18:14Z</time></trkpt><trkpt lat="43.352690743498755" lon="10.840607597728118"><ele>144.57142857142858</ele><time>2026-04-18T13:18:22Z</time></trkpt><trkpt lat="43.35266837561429" lon="10.840523399847587"><ele>144.2857142857143</ele><time>2026-04-18T13:19:13.999Z</time></trkpt><trkpt lat="43.35264470985765" lon="10.840442031689985"><ele>144.0</ele><time>2026-04-18T13:19:22.999Z</time></trkpt><trkpt lat="43.352611491959124" lon="10.840363967064999"><ele>144.00000000000003</ele><time>2026-04-18T13:19:29.999Z</time></trkpt><trkpt lat="43.35256768719883" lon="10.840300326730834"><ele>144.0</ele><time>2026-04-18T13:19:35.999Z</time></trkpt><trkpt lat="43.35252168813577" lon="10.840229975438799"><ele>144.0</ele><time>2026-04-18T13:19:40.998Z</time></trkpt><trkpt lat="43.352484799385955" lon="10.840158513035224"><ele>144.0</ele><time>2026-04-18T13:19:46.998Z</time></trkpt><trkpt lat="43.35243343495826" lon="10.840086265013788"><ele>144.0</ele><time>2026-04-18T13:19:53.998Z</time></trkpt><trkpt lat="43.35235680046918" lon="10.840064784967229"><ele>144.00000000000003</ele><time>2026-04-18T13:20:00.998Z</time></trkpt><trkpt lat="43.352294581766856" lon="10.840084242705801"><ele>144.0</ele><time>2026-04-18T13:20:08Z</time></trkpt><trkpt lat="43.352225368303095" lon="10.84009586996258"><ele>143.00000000000003</ele><time>2026-04-18T13:20:16Z</time></trkpt><trkpt lat="43.35215492585137" lon="10.840117728094455"><ele>142.0</ele><time>2026-04-18T13:20:26Z</time></trkpt><trkpt lat="43.352088160328094" lon="10.84013994567305"><ele>141.0</ele><time>2026-04-18T13:20:33Z</time></trkpt><trkpt lat="43.352033019398135" lon="10.840092844044124"><ele>140.0</ele><time>2026-04-18T13:20:40Z</time></trkpt><trkpt lat="43.351996980382886" lon="10.84001359027115"><ele>139.0</ele><time>2026-04-18T13:20:47.999Z</time></trkpt><trkpt lat="43.351936553952946" lon="10.839953039924131"><ele>138.00000000000003</ele><time>2026-04-18T13:20:53.999Z</time></trkpt><trkpt lat="43.35189219517546" lon="10.839876149378407"><ele>137.0</ele><time>2026-04-18T13:21:00.999Z</time></trkpt><trkpt lat="43.35190813667176" lon="10.83978327892265"><ele>137.00000000000003</ele><time>2026-04-18T13:21:08.999Z</time></trkpt><trkpt lat="43.35197854667632" lon="10.83976636557513"><ele>137.0</ele><time>2026-04-18T13:21:16.999Z</time></trkpt><trkpt lat="43.35204510148568" lon="10.839747772096354"><ele>137.0</ele><time>2026-04-18T13:21:23.999Z</time></trkpt><trkpt lat="43.352110780604754" lon="10.839746825456311"><ele>137.0</ele><time>2026-04-18T13:21:32.999Z</time></trkpt><trkpt lat="43.35217480980241" lon="10.83977065924363"><ele>137.0</ele><time>2026-04-18T13:21:40.999Z</time></trkpt><trkpt lat="43.35222761397016" lon="10.839837387473066"><ele>137.00000000000003</ele><time>2026-04-18T13:21:49.998Z</time></trkpt><trkpt lat="43.35228442066257" lon="10.83988519685241"><ele>137.0</ele><time>2026-04-18T13:21:56.998Z</time></trkpt><trkpt lat="43.35234934389938" lon="10.839872025771387"><ele>138.57142857142858</ele><time>2026-04-18T13:22:02.998Z</time></trkpt><trkpt lat="43.35240826987243" lon="10.839837452875937"><ele>140.14285714285714</ele><time>2026-04-18T13:22:09Z</time></trkpt><trkpt lat="43.35246708833853" lon="10.839790975086835"><ele>141.71428571428572</ele><time>2026-04-18T13:22:29Z</time></trkpt><trkpt lat="43.35252991397724" lon="10.839798574200822"><ele>143.28571428571428</ele><time>2026-04-18T13:22:35Z</time></trkpt><trkpt lat="43.35259349560803" lon="10.839806050431196"><ele>144.85714285714286</ele><time>2026-04-18T13:22:44Z</time></trkpt><trkpt lat="43.35266325194862" lon="10.839790035071985"><ele>146.42857142857144</ele><time>2026-04-18T13:22:54.999Z</time></trkpt><trkpt lat="43.3527340549558" lon="10.839781129919597"><ele>148.0</ele><time>2026-04-18T13:23:03.999Z</time></trkpt><trkpt lat="43.352801148353265" lon="10.83974932847272"><ele>148.0</ele><time>2026-04-18T13:23:12.999Z</time></trkpt><trkpt lat="43.352852375698575" lon="10.839687727573128"><ele>148.0</ele><time>2026-04-18T13:23:19.999Z</time></trkpt><trkpt lat="43.352912436431396" lon="10.839653009425406"><ele>148.0</ele><time>2026-04-18T13:23:27.999Z</time></trkpt><trkpt lat="43.35297047710789" lon="10.839589462008908"><ele>148.0</ele><time>2026-04-18T13:23:37.999Z</time></trkpt><trkpt lat="43.35298668198609" lon="10.839497863381123"><ele>148.0</ele><time>2026-04-18T13:23:45.999Z</time></trkpt><trkpt lat="43.35300448667961" lon="10.83940788257806"><ele>148.0</ele><time>2026-04-18T13:23:52.998Z</time></trkpt><trkpt lat="43.35301247659205" lon="10.839312255153107"><ele>148.0</ele><time>2026-04-18T13:24:16Z</time></trkpt><trkpt lat="43.35301453272314" lon="10.839213566364025"><ele>148.14285714285714</ele><time>2026-04-18T13:24:25Z</time></trkpt><trkpt lat="43.35301201811134" lon="10.839121520693858"><ele>148.28571428571428</ele><time>2026-04-18T13:24:32Z</time></trkpt><trkpt lat="43.352997243667026" lon="10.839035848538078"><ele>148.42857142857142</ele><time>2026-04-18T13:24:39Z</time></trkpt><trkpt lat="43.3529905120451" lon="10.838941002212641"><ele>148.57142857142856</ele><time>2026-04-18T13:24:53Z</time></trkpt><trkpt lat="43.35293634904725" lon="10.838890993544872"><ele>148.7142857142857</ele><time>2026-04-18T13:24:58Z</time></trkpt><trkpt lat="43.352869094262054" lon="10.838910274773475"><ele>148.85714285714286</ele><time>2026-04-18T13:25:04.999Z</time></trkpt><trkpt lat="43.35281924341644" lon="10.838966243500852"><ele>149.0</ele><time>2026-04-18T13:25:11.999Z</time></trkpt><trkpt lat="43.35276784042087" lon="10.839024244591393"><ele>149.0</ele><time>2026-04-18T13:25:17.999Z</time></trkpt><trkpt lat="43.3527198198773" lon="10.839091981541591"><ele>149.0</ele><time>2026-04-18T13:25:25.999Z</time></trkpt><trkpt lat="43.35267794794106" lon="10.839168864363296"><ele>149.0</ele><time>2026-04-18T13:25:32.999Z</time></trkpt><trkpt lat="43.352620691529225" lon="10.83924073012561"><ele>149.0</ele><time>2026-04-18T13:25:38.999Z</time></trkpt><trkpt lat="43.35259792185126" lon="10.839323237157435"><ele>149.0</ele><time>2026-04-18T13:25:44.999Z</time></trkpt><trkpt lat="43.35255858800503" lon="10.83940460740862"><ele>149.0</ele><time>2026-04-18T13:25:51.999Z</time></trkpt><trkpt lat="43.35252377486267" lon="10.839483311442176"><ele>149.0</ele><time>2026-04-18T13:25:57.999Z</time></trkpt><trkpt lat="43.352484905323465" lon="10.839559365461081"><ele>148.85714285714286</ele><time>2026-04-18T13:26:04.998Z</time></trkpt><trkpt lat="43.352422259380454" lon="10.839546493817242"><ele>148.7142857142857</ele><time>2026-04-18T13:26:15.998Z</time></trkpt><trkpt lat="43.35237575388394" lon="10.839487841246044"><ele>148.57142857142856</ele><time>2026-04-18T13:26:24Z</time></trkpt><trkpt lat="43.35229881010876" lon="10.839461295726828"><ele>148.42857142857142</ele><time>2026-04-18T13:26:41Z</time></trkpt><trkpt lat="43.352233982425105" lon="10.839486363358043"><ele>148.28571428571428</ele><time>2026-04-18T13:27:10Z</time></trkpt><trkpt lat="43.35216327489432" lon="10.839509076133318"><ele>148.14285714285714</ele><time>2026-04-18T13:27:15.999Z</time></trkpt><trkpt lat="43.35209839445992" lon="10.839542754509429"><ele>148.0</ele><time>2026-04-18T13:27:21.999Z</time></trkpt><trkpt lat="43.35204375124553" lon="10.839586557206431"><ele>146.42857142857144</ele><time>2026-04-18T13:27:27.999Z</time></trkpt><trkpt lat="43.35198334514357" lon="10.839552942924442"><ele>144.85714285714286</ele><time>2026-04-18T13:27:40.999Z</time></trkpt><trkpt lat="43.35195792119179" lon="10.839462500796087"><ele>143.28571428571428</ele><time>2026-04-18T13:27:46.999Z</time></trkpt><trkpt lat="43.351939730250876" lon="10.839375867729892"><ele>141.71428571428572</ele><time>2026-04-18T13:27:52.999Z</time></trkpt><trkpt lat="43.351899300449055" lon="10.839297358168213"><ele>140.14285714285714</ele><time>2026-04-18T13:28:01.999Z</time></trkpt><trkpt lat="43.35186240662388" lon="10.839224958901353"><ele>138.57142857142858</ele><time>2026-04-18T13:28:07.999Z</time></trkpt><trkpt lat="43.351870377663566" lon="10.839134858058358"><ele>137.0</ele><time>2026-04-18T13:28:15.998Z</time></trkpt><trkpt lat="43.35191763282986" lon="10.83907320436396"><ele>136.85714285714286</ele><time>2026-04-18T13:28:22.998Z</time></trkpt><trkpt lat="43.35197282869139" lon="10.839024717085387"><ele>136.71428571428572</ele><time>2026-04-18T13:28:30Z</time></trkpt><trkpt lat="43.352028086876494" lon="10.838982499392838"><ele>136.57142857142856</ele><time>2026-04-18T13:28:40Z</time></trkpt><trkpt lat="43.3520921332343" lon="10.838974454071526"><ele>136.42857142857144</ele><time>2026-04-18T13:28:49Z</time></trkpt><trkpt lat="43.35215969613769" lon="10.838988736601419"><ele>136.28571428571428</ele><time>2026-04-18T13:29:02Z</time></trkpt><trkpt lat="43.35221301117628" lon="10.839037730082994"><ele>136.14285714285714</ele><time>2026-04-18T13:29:11Z</time></trkpt><trkpt lat="43.35227288675699" lon="10.839067412436046"><ele>136.0</ele><time>2026-04-18T13:29:18.999Z</time></trkpt><trkpt lat="43.352324150955475" lon="10.839118658453268"><ele>137.85714285714283</ele><time>2026-04-18T13:29:26.999Z</time></trkpt><trkpt lat="43.35238744652933" lon="10.839148768769098"><ele>139.71428571428572</ele><time>2026-04-18T13:29:36.999Z</time></trkpt><trkpt lat="43.352453311317184" lon="10.83919771346741"><ele>141.57142857142856</ele><time>2026-04-18T13:30:03.999Z</time></trkpt><trkpt lat="43.35252683828193" lon="10.839201566998629"><ele>143.42857142857142</ele><time>2026-04-18T13:30:11.999Z</time></trkpt><trkpt lat="43.352602287831985" lon="10.839143732885658"><ele>145.28571428571428</ele><time>2026-04-18T13:30:40Z</time></trkpt><trkpt lat="43.35265942412658" lon="10.839090613860366"><ele>147.14285714285714</ele><time>2026-04-18T13:30:52Z</time></trkpt><trkpt lat="43.35271115588579" lon="10.839022015429768"><ele>149.0</ele><time>2026-04-18T13:31:02Z</time></trkpt><trkpt lat="43.352772608075774" lon="10.838976115457582"><ele>149.0</ele><time>2026-04-18T13:31:16Z</time></trkpt><trkpt lat="43.35282220177019" lon="10.838920928325813"><ele>149.0</ele><time>2026-04-18T13:31:34.999Z</time></trkpt><trkpt lat="43.35287828770923" lon="10.838881415074356"><ele>149.0</ele><time>2026-04-18T13:31:45.999Z</time></trkpt><trkpt lat="43.3529305406193" lon="10.83882908077609"><ele>149.0</ele><time>2026-04-18T13:31:51.999Z</time></trkpt><trkpt lat="43.352989175250855" lon="10.838785750103199"><ele>149.0</ele><time>2026-04-18T13:32:00.999Z</time></trkpt><trkpt lat="43.35305537837212" lon="10.838767968137079"><ele>149.0</ele><time>2026-04-18T13:32:19.999Z</time></trkpt><trkpt lat="43.35311642543598" lon="10.838789227198017"><ele>149.0</ele><time>2026-04-18T13:32:36Z</time></trkpt><trkpt lat="43.353158608893224" lon="10.838861043498433"><ele>150.85714285714286</ele><time>2026-04-18T13:32:46Z</time></trkpt><trkpt lat="43.35320502929116" lon="10.83892530179873"><ele>152.7142857142857</ele><time>2026-04-18T13:32:54Z</time></trkpt><trkpt lat="43.353269741751554" lon="10.838902462834177"><ele>154.57142857142856</ele><time>2026-04-18T13:32:59Z</time></trkpt><trkpt lat="43.35331180771305" lon="10.838833420683677"><ele>156.42857142857142</ele><time>2026-04-18T13:33:06Z</time></trkpt><trkpt lat="43.35336471242062" lon="10.83877381771281"><ele>158.28571428571428</ele><time>2026-04-18T13:33:12Z</time></trkpt><trkpt lat="43.35341570283371" lon="10.838700622500289"><ele>160.14285714285714</ele><time>2026-04-18T13:33:20Z</time></trkpt><trkpt lat="43.3534640578853" lon="10.838628191325762"><ele>162.0</ele><time>2026-04-18T13:33:27Z</time></trkpt><trkpt lat="43.3534891202162" lon="10.83853306837274"><ele>162.0</ele><time>2026-04-18T13:33:34.999Z</time></trkpt><trkpt lat="43.35350783774846" lon="10.838449898419121"><ele>161.0</ele><time>2026-04-18T13:33:40.999Z</time></trkpt><trkpt lat="43.35351592837739" lon="10.83834804947744"><ele>161.0</ele><time>2026-04-18T13:33:48.999Z</time></trkpt><trkpt lat="43.35358645061926" lon="10.838335905339699"><ele>161.0</ele><time>2026-04-18T13:33:56.999Z</time></trkpt></trkseg></trk></gpx>